createdAt,value
2018-07-23T00:01:46.858Z,64.20
2018-07-23T00:04:14.918Z,66.13
2018-07-23T00:06:43.006Z,72.20
2018-07-23T00:09:11.041Z,72.70
2018-07-23T00:11:39.085Z,74.63
2018-07-23T00:14:07.134Z,78.07
2018-07-23T00:16:35.182Z,94.40
2018-07-23T00:19:03.223Z,92.13
2018-07-23T00:21:31.257Z,90.73
2018-07-23T00:23:59.289Z,91.67
2018-07-23T00:26:27.150Z,97.80
2018-07-23T00:28:55.190Z,97.00
2018-07-23T00:31:23.029Z,110.47
2018-07-23T00:33:51.066Z,122.33
2018-07-23T00:36:19.103Z,105.43
2018-07-23T00:38:47.153Z,107.13
2018-07-23T00:41:15.189Z,115.87
2018-07-23T00:43:43.237Z,112.73
2018-07-23T00:46:11.314Z,99.77
2018-07-23T00:48:39.345Z,116.97
2018-07-23T00:51:07.398Z,82.93
2018-07-23T00:53:35.221Z,68.57
2018-07-23T00:56:03.286Z,74.40
2018-07-23T00:58:31.321Z,79.77
2018-07-23T01:00:59.374Z,76.83
2018-07-23T01:03:27.434Z,75.00
2018-07-23T01:05:55.505Z,70.90
2018-07-23T01:08:23.582Z,80.00
2018-07-23T01:10:51.638Z,73.23
2018-07-23T01:13:19.457Z,74.20
2018-07-23T01:15:47.502Z,65.97
2018-07-23T01:18:15.565Z,62.70
2018-07-23T01:20:43.605Z,69.93
2018-07-23T01:23:11.671Z,66.10
2018-07-23T01:25:39.712Z,71.83
2018-07-23T01:28:07.777Z,79.53
2018-07-23T01:30:35.839Z,82.17
2018-07-23T01:33:03.878Z,87.90
2018-07-23T01:35:31.917Z,82.20
2018-07-23T01:37:59.957Z,114.10
2018-07-23T01:40:28.002Z,97.17
2018-07-23T01:42:55.837Z,140.67
2018-07-23T01:45:23.878Z,124.63
2018-07-23T01:47:51.924Z,127.07
2018-07-23T01:50:19.969Z,148.23
2018-07-23T01:52:48.025Z,143.13
2018-07-23T01:55:16.076Z,144.73
2018-07-23T01:57:44.129Z,148.40
2018-07-23T02:00:12.234Z,168.87
2018-07-23T02:02:40.258Z,159.10
2018-07-23T02:05:08.307Z,135.30
2018-07-23T02:07:36.380Z,145.70
2018-07-23T02:10:04.475Z,121.60
2018-07-23T02:12:32.526Z,120.80
2018-07-23T02:15:00.574Z,117.00
2018-07-23T02:17:28.637Z,114.40
2018-07-23T02:19:56.699Z,111.30
2018-07-23T02:22:24.540Z,101.53
2018-07-23T02:24:52.606Z,95.30
2018-07-23T02:27:20.437Z,101.83
2018-07-23T02:29:48.478Z,110.60
2018-07-23T02:32:16.535Z,104.47
2018-07-23T02:34:44.606Z,94.47
2018-07-23T02:37:12.651Z,93.47
2018-07-23T02:39:40.694Z,96.70
2018-07-23T02:42:08.742Z,93.17
2018-07-23T02:44:36.794Z,110.20
2018-07-23T02:47:04.833Z,99.10
2018-07-23T02:49:32.894Z,102.63
2018-07-23T02:52:01.222Z,100.37
2018-07-23T02:54:29.049Z,96.83
2018-07-23T02:56:57.131Z,90.27
2018-07-23T02:59:24.977Z,89.13
2018-07-23T03:01:53.021Z,105.13
2018-07-23T03:04:21.062Z,96.07
2018-07-23T03:06:49.497Z,104.90
2018-07-23T03:09:17.542Z,107.33
2018-07-23T03:11:45.578Z,93.43
2018-07-23T03:14:13.425Z,95.73
2018-07-23T03:16:41.262Z,90.77
2018-07-23T03:19:09.331Z,105.60
2018-07-23T03:21:37.413Z,106.27
2018-07-23T03:24:05.457Z,100.37
2018-07-23T03:26:33.507Z,110.77
2018-07-23T03:29:01.569Z,111.23
2018-07-23T03:31:29.620Z,116.70
2018-07-23T03:33:57.666Z,129.00
2018-07-23T03:36:25.502Z,121.73
2018-07-23T03:38:53.542Z,121.67
2018-07-23T03:41:21.577Z,116.47
2018-07-23T03:43:49.631Z,138.80
2018-07-23T03:46:17.673Z,144.83
2018-07-23T03:48:45.715Z,126.17
2018-07-23T03:51:13.754Z,135.93
2018-07-23T03:53:41.613Z,133.47
2018-07-23T03:56:09.673Z,115.80
2018-07-23T03:58:37.713Z,121.33
2018-07-23T04:01:05.567Z,125.97
2018-07-23T04:03:33.489Z,109.73
2018-07-23T04:06:01.555Z,116.67
2018-07-23T04:08:29.597Z,119.03
2018-07-23T04:10:57.667Z,111.73
2018-07-23T04:13:25.802Z,120.07
2018-07-23T04:15:53.846Z,125.67
2018-07-23T04:18:21.938Z,122.00
2018-07-23T04:20:49.982Z,111.13
2018-07-23T04:23:18.030Z,123.77
2018-07-23T04:25:46.107Z,134.13
2018-07-23T04:28:14.157Z,125.67
2018-07-23T04:30:42.197Z,144.33
2018-07-23T04:33:10.245Z,127.10
2018-07-23T04:35:38.302Z,134.13
2018-07-23T04:38:06.395Z,126.97
2018-07-23T04:40:34.437Z,125.17
2018-07-23T04:43:02.498Z,125.67
2018-07-23T04:45:30.557Z,112.50
2018-07-23T04:47:58.609Z,94.60
2018-07-23T04:50:26.674Z,83.37
2018-07-23T04:52:54.726Z,78.03
2018-07-23T04:55:22.768Z,67.77
2018-07-23T04:57:50.813Z,65.30
2018-07-23T05:00:18.881Z,64.27
2018-07-23T05:02:46.973Z,62.97
2018-07-23T05:05:15.015Z,70.90
2018-07-23T05:07:43.079Z,68.80
2018-07-23T05:10:10.933Z,67.27
2018-07-23T05:12:38.832Z,63.70
2018-07-23T05:15:06.882Z,72.73
2018-07-23T05:17:34.965Z,59.27
2018-07-23T05:20:03.042Z,53.63
2018-07-23T05:22:31.089Z,56.70
2018-07-23T05:24:59.137Z,53.53
2018-07-23T05:27:27.210Z,54.50
2018-07-23T05:29:55.045Z,54.83
2018-07-23T05:32:23.100Z,50.13
2018-07-23T05:34:51.154Z,53.17
2018-07-23T05:37:19.210Z,52.53
2018-07-23T05:39:47.281Z,51.97
2018-07-23T05:42:15.340Z,55.10
2018-07-23T05:44:43.445Z,54.60
2018-07-23T05:47:11.645Z,53.80
2018-07-23T05:49:39.686Z,52.83
2018-07-23T05:52:07.746Z,57.73
2018-07-23T05:54:35.790Z,54.10
2018-07-23T05:57:03.877Z,57.67
2018-07-23T05:59:32.550Z,56.80
2018-07-23T06:02:00.602Z,55.70
2018-07-23T06:04:28.715Z,57.87
2018-07-23T06:06:56.887Z,58.83
2018-07-23T06:09:24.822Z,60.57
2018-07-23T06:11:52.869Z,58.10
2018-07-23T06:14:21.085Z,59.40
2018-07-23T06:16:49.130Z,55.63
2018-07-23T06:19:17.190Z,58.13
2018-07-23T06:21:45.275Z,50.53
2018-07-23T06:24:13.109Z,52.97
2018-07-23T06:26:41.165Z,51.67
2018-07-23T06:29:09.206Z,50.30
2018-07-23T06:31:37.287Z,47.67
2018-07-23T06:34:05.363Z,44.80
2018-07-23T06:36:33.421Z,46.10
2018-07-23T06:39:01.477Z,48.73
2018-07-23T06:41:29.517Z,50.07
2018-07-23T06:43:57.573Z,52.90
2018-07-23T06:46:25.626Z,49.87
2018-07-23T06:48:53.453Z,50.90
2018-07-23T06:51:21.506Z,44.57
2018-07-23T06:53:49.549Z,46.13
2018-07-23T06:56:17.604Z,42.53
2018-07-23T06:58:45.654Z,40.73
2018-07-23T07:01:13.733Z,40.27
2018-07-23T07:03:41.782Z,42.60
2018-07-23T07:06:09.850Z,41.37
2018-07-23T07:08:38.401Z,43.57
2018-07-23T07:11:06.473Z,38.60
2018-07-23T07:13:34.618Z,40.60
2018-07-23T07:16:02.619Z,40.37
2018-07-23T07:18:30.698Z,41.07
2018-07-23T07:20:58.885Z,38.40
2018-07-23T07:23:26.948Z,38.23
2018-07-23T07:25:54.990Z,36.57
2018-07-23T07:28:23.058Z,36.43
2018-07-23T07:30:51.103Z,36.37
2018-07-23T07:33:19.157Z,34.63
2018-07-23T07:35:47.250Z,33.40
2018-07-23T07:38:15.271Z,36.90
2018-07-23T07:40:43.323Z,36.27
2018-07-23T07:43:11.359Z,34.97
2018-07-23T07:45:39.410Z,33.33
2018-07-23T07:48:07.501Z,34.75
2018-07-23T07:50:35.550Z,34.20
2018-07-23T07:53:03.626Z,36.50
2018-07-23T07:55:31.770Z,34.80
2018-07-23T07:57:59.822Z,32.47
2018-07-23T08:00:27.882Z,32.20
2018-07-23T08:02:55.937Z,32.37
2018-07-23T08:05:24.027Z,32.40
2018-07-23T08:07:52.046Z,31.83
2018-07-23T08:10:20.135Z,33.70
2018-07-23T08:12:48.243Z,34.03
2018-07-23T08:15:16.323Z,34.00
2018-07-23T08:17:44.375Z,32.33
2018-07-23T08:20:12.434Z,32.27
2018-07-23T08:22:40.481Z,31.57
2018-07-23T08:25:08.573Z,32.17
2018-07-23T08:27:36.590Z,31.43
2018-07-23T08:30:05.838Z,32.60
2018-07-23T08:32:33.890Z,32.23
2018-07-23T08:35:01.951Z,32.27
2018-07-23T08:37:30.010Z,31.03
2018-07-23T08:39:58.077Z,30.07
2018-07-23T08:42:26.167Z,29.27
2018-07-23T08:44:54.272Z,29.67
2018-07-23T08:47:22.275Z,28.37
2018-07-23T08:49:50.342Z,27.97
2018-07-23T08:52:18.384Z,29.87
2018-07-23T08:54:46.454Z,26.83
2018-07-23T08:57:14.533Z,27.20
2018-07-23T08:59:42.570Z,27.17
2018-07-23T09:02:10.801Z,26.70
2018-07-23T09:04:38.846Z,26.40
2018-07-23T09:07:06.902Z,27.20
2018-07-23T09:09:34.951Z,25.20
2018-07-23T09:12:03.018Z,27.70
2018-07-23T09:14:31.074Z,28.80
2018-07-23T09:16:59.139Z,26.43
2018-07-23T09:19:27.178Z,26.67
2018-07-23T09:21:55.270Z,24.53
2018-07-23T09:24:23.326Z,23.60
2018-07-23T09:26:51.394Z,22.50
2018-07-23T09:29:19.488Z,22.63
2018-07-23T09:31:47.800Z,21.43
2018-07-23T09:34:15.870Z,21.40
2018-07-23T10:01:19.089Z,17.07
2018-07-23T10:38:10.118Z,12.50
2018-07-23T10:40:38.177Z,11.60
2018-07-23T10:57:50.215Z,12.43
2018-07-23T11:00:18.350Z,12.55
2018-07-23T11:02:46.408Z,10.60
2018-07-23T11:05:14.442Z,11.33
2018-07-23T11:07:42.498Z,11.63
2018-07-23T11:10:10.557Z,14.20
2018-07-23T11:12:38.651Z,12.85
2018-07-23T11:15:07.521Z,11.40
2018-07-23T11:22:31.051Z,12.30
2018-07-23T11:27:26.506Z,11.00
2018-07-23T11:29:54.337Z,10.43
2018-07-23T11:37:17.074Z,10.65
2018-07-23T11:39:45.112Z,9.63
2018-07-23T11:42:13.165Z,9.35
2018-07-23T11:44:41.207Z,10.98
2018-07-23T11:47:10.361Z,10.72
2018-07-23T11:49:38.241Z,11.10
2018-07-23T11:52:06.290Z,10.30
2018-07-23T11:54:34.357Z,9.60
2018-07-23T11:57:02.467Z,10.30
2018-07-23T11:59:30.450Z,9.35
2018-07-23T12:09:20.466Z,9.20
2018-07-23T12:19:10.686Z,8.50
2018-07-23T12:21:38.718Z,9.70
2018-07-23T12:31:28.877Z,6.90
2018-07-23T12:33:57.013Z,8.30
2018-07-23T12:36:25.074Z,7.90
2018-07-23T12:38:53.130Z,9.90
2018-07-23T12:43:48.829Z,10.95
2018-07-23T12:48:44.058Z,10.50
2018-07-23T12:51:11.994Z,9.60
2018-07-23T12:53:40.233Z,7.95
2018-07-23T13:08:25.366Z,9.40
2018-07-23T13:15:47.948Z,9.05
2018-07-23T14:00:01.742Z,9.35
2018-07-23T14:02:29.784Z,9.85
2018-07-23T14:07:25.222Z,10.30
2018-07-23T14:17:15.458Z,8.30
2018-07-23T14:22:10.882Z,8.80
2018-07-23T14:29:33.706Z,9.90
2018-07-23T14:32:01.762Z,9.70
2018-07-23T14:34:29.802Z,8.80
2018-07-23T14:49:14.569Z,8.37
2018-07-23T14:51:42.606Z,7.70
2018-07-23T15:11:22.622Z,7.85
2018-07-23T15:13:50.686Z,8.75
2018-07-23T15:16:18.533Z,7.95
2018-07-23T15:18:46.574Z,7.40
2018-07-23T15:31:03.959Z,7.00
2018-07-23T15:35:59.370Z,8.00
2018-07-23T15:38:27.426Z,7.47
2018-07-23T15:40:55.465Z,6.97
2018-07-23T15:43:23.538Z,7.65
2018-07-23T15:45:51.679Z,7.30
2018-07-23T15:48:19.597Z,7.28
2018-07-23T15:50:47.430Z,8.15
2018-07-23T15:53:15.466Z,6.90
2018-07-23T15:55:43.618Z,6.80
2018-07-23T15:58:11.641Z,6.97
2018-07-23T16:00:39.686Z,7.55
2018-07-23T16:03:07.722Z,8.50
2018-07-23T16:05:35.565Z,9.23
2018-07-23T16:08:03.609Z,9.13
2018-07-23T16:10:31.649Z,9.93
2018-07-23T16:12:59.694Z,7.83
2018-07-23T16:30:12.121Z,8.08
2018-07-23T16:35:09.485Z,7.05
2018-07-23T16:40:05.607Z,8.38
2018-07-23T16:42:33.414Z,8.30
2018-07-23T16:45:01.451Z,8.00
2018-07-23T16:49:56.879Z,6.47
2018-07-23T16:52:24.913Z,8.40
2018-07-23T16:54:52.989Z,6.60
2018-07-23T16:57:21.121Z,7.53
2018-07-23T16:59:49.157Z,7.03
2018-07-23T17:02:17.181Z,7.10
2018-07-23T17:04:45.017Z,7.00
2018-07-23T17:07:13.058Z,7.22
2018-07-23T17:09:41.097Z,7.78
2018-07-23T17:12:09.146Z,10.95
2018-07-23T17:14:37.186Z,8.53
2018-07-23T17:17:05.239Z,8.70
2018-07-23T17:19:33.276Z,7.95
2018-07-23T17:22:01.318Z,7.87
2018-07-23T17:24:29.357Z,8.00
2018-07-23T17:26:57.393Z,8.88
2018-07-23T17:29:25.421Z,9.50
2018-07-23T17:31:53.453Z,7.58
2018-07-23T17:34:21.493Z,9.78
2018-07-23T17:36:49.561Z,10.10
2018-07-23T17:39:17.465Z,8.80
2018-07-23T17:41:45.506Z,9.00
2018-07-23T17:44:13.553Z,8.40
2018-07-23T17:46:41.589Z,8.23
2018-07-23T17:49:09.624Z,7.03
2018-07-23T17:54:05.054Z,7.20
2018-07-23T18:01:27.885Z,7.00
2018-07-23T18:11:18.669Z,7.53
2018-07-23T18:13:46.673Z,8.58
2018-07-23T18:16:14.714Z,7.50
2018-07-23T18:18:42.786Z,7.83
2018-07-23T18:21:10.823Z,7.00
2018-07-23T18:23:38.929Z,7.37
2018-07-23T18:26:06.989Z,7.92
2018-07-23T18:28:34.833Z,9.08
2018-07-23T18:31:02.868Z,7.40
2018-07-23T18:33:30.902Z,7.80
2018-07-23T18:35:58.949Z,7.75
2018-07-23T18:38:27.110Z,7.97
2018-07-23T18:40:55.050Z,8.10
2018-07-23T18:43:23.097Z,9.00
2018-07-23T18:45:51.153Z,7.58
2018-07-23T18:49:44.913Z,9.30
2018-07-23T18:52:13.623Z,7.40
2018-07-23T18:54:42.637Z,8.60
2018-07-23T18:57:10.965Z,8.18
2018-07-23T18:59:39.060Z,7.72
2018-07-23T19:02:08.123Z,8.68
2018-07-23T19:04:36.177Z,8.20
2018-07-23T19:07:04.449Z,7.95
2018-07-23T19:09:32.293Z,7.97
2018-07-23T19:12:00.842Z,8.68
2018-07-23T19:14:29.093Z,9.25
2018-07-23T19:16:58.079Z,9.23
2018-07-23T19:19:26.121Z,9.48
2018-07-23T19:21:54.153Z,9.53
2018-07-23T19:24:22.209Z,10.10
2018-07-23T19:26:50.245Z,10.68
2018-07-23T19:29:18.297Z,10.78
2018-07-23T19:31:46.354Z,11.12
2018-07-23T19:34:14.413Z,11.73
2018-07-23T19:36:42.293Z,10.90
2018-07-23T20:01:18.086Z,11.40
2018-07-23T20:06:13.656Z,10.50
2018-07-23T20:08:41.670Z,10.00
2018-07-23T20:11:09.718Z,9.73
2018-07-23T20:18:32.583Z,8.63
2018-07-23T20:21:00.626Z,10.93
2018-07-23T20:23:28.449Z,9.57
2018-07-23T20:25:56.489Z,9.20
2018-07-23T20:28:24.562Z,10.40
2018-07-23T20:30:52.593Z,10.00
2018-07-23T20:33:20.679Z,12.10
2018-07-23T20:40:43.522Z,11.70
2018-07-23T20:45:39.029Z,11.87
2018-07-23T20:48:07.077Z,12.70
2018-07-23T20:50:34.921Z,12.47
2018-07-23T20:53:03.006Z,11.87
2018-07-23T20:55:31.073Z,12.87
2018-07-23T20:57:59.157Z,12.17
2018-07-23T21:00:27.260Z,13.17
2018-07-23T21:02:55.282Z,12.50
2018-07-23T21:05:23.343Z,22.10
2018-07-23T21:07:51.405Z,19.40
2018-07-23T21:15:14.281Z,15.05
2018-07-23T21:20:09.953Z,15.95
2018-07-23T21:22:38.289Z,15.80
2018-07-23T21:25:06.435Z,14.50
2018-07-23T21:27:34.445Z,15.00
2018-07-23T21:30:02.678Z,14.93
2018-07-23T21:32:30.757Z,15.23
2018-07-23T21:34:58.786Z,14.70
2018-07-23T21:37:26.834Z,14.97
2018-07-23T21:39:54.897Z,15.43
2018-07-23T21:42:22.946Z,15.07
2018-07-23T21:44:51.021Z,15.20
2018-07-23T21:47:19.073Z,16.17
2018-07-23T21:49:47.146Z,15.27
2018-07-23T21:52:15.194Z,17.07
2018-07-23T21:54:43.609Z,16.13
2018-07-23T21:57:11.690Z,15.10
2018-07-23T21:59:39.750Z,17.40
2018-07-23T22:02:08.272Z,15.70
2018-07-23T22:04:36.314Z,16.10
2018-07-23T22:07:04.426Z,15.67
2018-07-23T22:09:32.486Z,15.40
2018-07-23T22:12:00.538Z,15.20
2018-07-23T22:14:28.601Z,17.13
2018-07-23T22:16:56.662Z,16.83
2018-07-23T22:19:24.723Z,16.93
2018-07-23T22:21:52.758Z,17.17
2018-07-23T22:24:20.805Z,18.53
2018-07-23T22:26:48.851Z,17.53
2018-07-23T22:29:16.881Z,17.63
2018-07-23T22:31:44.973Z,18.07
2018-07-23T22:34:13.014Z,17.07
2018-07-23T22:36:41.065Z,17.57
2018-07-23T22:39:10.405Z,17.10
2018-07-23T22:41:38.850Z,16.93
2018-07-23T22:44:06.941Z,18.27
2018-07-23T22:46:35.010Z,17.80
2018-07-23T22:49:03.060Z,17.80
2018-07-23T22:51:31.298Z,17.93
2018-07-23T22:53:59.369Z,19.23
2018-07-23T22:56:27.286Z,18.17
2018-07-23T22:58:55.314Z,18.30
2018-07-23T23:01:23.373Z,19.13
2018-07-23T23:03:51.452Z,18.53
2018-07-23T23:06:19.514Z,18.87
2018-07-23T23:08:47.674Z,19.13
2018-07-23T23:11:15.725Z,19.70
2018-07-23T23:13:43.798Z,18.77
2018-07-23T23:16:11.853Z,19.63
2018-07-23T23:18:39.914Z,19.03
2018-07-23T23:21:08.022Z,19.17
2018-07-23T23:23:36.054Z,19.63
2018-07-23T23:26:03.913Z,18.27
2018-07-23T23:28:32.114Z,20.03
2018-07-23T23:31:00.194Z,20.27
2018-07-23T23:33:28.277Z,19.33
2018-07-23T23:35:56.125Z,20.23
2018-07-23T23:38:24.192Z,20.33
2018-07-23T23:40:52.254Z,20.80
2018-07-23T23:43:20.316Z,21.37
2018-07-23T23:45:48.369Z,20.13
2018-07-23T23:48:16.440Z,21.30
2018-07-23T23:50:44.489Z,21.13
2018-07-23T23:53:12.526Z,21.23
2018-07-23T23:55:40.614Z,20.80
2018-07-23T23:58:08.649Z,21.93
